createdAt,value
2022-11-03T00:01:44.510Z,95573.56
2022-11-03T00:04:14.132Z,95565.84
2022-11-03T00:06:42.960Z,95565.34
2022-11-03T00:09:12.427Z,95567.06
2022-11-03T00:11:41.967Z,95569.38
2022-11-03T00:14:10.154Z,95566.56
2022-11-03T00:16:38.160Z,95558.03
2022-11-03T00:19:05.717Z,95568.91
2022-11-03T00:21:32.869Z,95567.91
2022-11-03T00:23:59.713Z,95564.56
2022-11-03T00:26:29.009Z,95573.69
2022-11-03T00:28:58.589Z,95566.28
2022-11-03T00:31:28.330Z,95560.16
2022-11-03T00:33:56.049Z,95557.63
2022-11-03T00:36:28.519Z,95555.94
2022-11-03T00:38:55.743Z,95561.53
2022-11-03T00:41:23.508Z,95554.38
2022-11-03T00:43:51.708Z,95557.00
2022-11-03T00:46:20.765Z,95558.00
2022-11-03T00:48:48.030Z,95557.13
2022-11-03T00:51:15.993Z,95550.94
2022-11-03T00:53:48.368Z,95545.44
2022-11-03T00:56:20.834Z,95546.97
2022-11-03T00:58:47.722Z,95552.47
2022-11-03T01:01:20.677Z,95549.63
2022-11-03T01:03:50.757Z,95546.22
2022-11-03T01:06:17.373Z,95537.94
2022-11-03T01:08:44.056Z,95540.38
2022-11-03T01:11:16.678Z,95537.47
2022-11-03T01:13:46.541Z,95543.25
2022-11-03T01:16:13.172Z,95532.78
2022-11-03T01:18:39.794Z,95530.75
2022-11-03T01:21:06.446Z,95534.59
2022-11-03T01:23:35.406Z,95534.81
2022-11-03T01:26:06.984Z,95524.75
2022-11-03T01:28:35.542Z,95516.88
2022-11-03T01:31:20.602Z,95506.78
2022-11-03T01:33:49.383Z,95509.97
2022-11-03T01:36:16.789Z,95506.41
2022-11-03T01:38:44.189Z,95502.31
2022-11-03T01:41:15.423Z,95508.50
2022-11-03T01:43:42.948Z,95504.03
2022-11-03T01:46:27.416Z,95498.53
2022-11-03T01:49:02.253Z,95493.03
2022-11-03T01:51:33.567Z,95502.00
2022-11-03T01:54:07.650Z,95490.56
2022-11-03T01:56:39.554Z,95490.16
2022-11-03T01:59:06.563Z,95491.66
2022-11-03T02:01:34.749Z,95488.44
2022-11-03T02:04:13.035Z,95487.50
2022-11-03T02:06:43.028Z,95493.38
2022-11-03T02:09:11.799Z,95491.09
2022-11-03T02:11:41.082Z,95485.38
2022-11-03T02:14:12.444Z,95485.78
2022-11-03T02:16:46.344Z,95476.16
2022-11-03T02:19:33.288Z,95467.75
2022-11-03T02:22:27.068Z,95466.47
2022-11-03T02:25:09.954Z,95459.38
2022-11-03T02:27:40.665Z,95455.72
2022-11-03T02:30:08.189Z,95449.06
2022-11-03T02:32:47.278Z,95438.75
2022-11-03T02:35:24.707Z,95431.91
2022-11-03T02:37:57.592Z,95430.34
2022-11-03T02:40:36.048Z,95434.81
2022-11-03T02:43:08.107Z,95428.88
2022-11-03T02:45:35.404Z,95432.34
2022-11-03T02:48:04.541Z,95425.81
2022-11-03T02:50:33.903Z,95414.63
2022-11-03T02:53:05.744Z,95419.81
2022-11-03T02:55:40.274Z,95409.63
2022-11-03T02:58:12.648Z,95408.22
2022-11-03T03:00:52.111Z,95411.50
2022-11-03T03:03:40.354Z,95402.47
2022-11-03T03:06:13.536Z,95400.38
2022-11-03T03:08:46.545Z,95395.31
2022-11-03T03:11:13.731Z,95390.31
2022-11-03T03:13:44.501Z,95383.03
2022-11-03T03:16:26.380Z,95388.44
2022-11-03T03:19:30.589Z,95387.34
2022-11-03T03:22:03.054Z,95381.50
2022-11-03T03:24:53.441Z,95384.44
2022-11-03T03:27:26.402Z,95373.22
2022-11-03T03:29:58.781Z,95365.34
2022-11-03T03:32:31.043Z,95361.31
2022-11-03T03:35:02.382Z,95367.59
2022-11-03T03:37:32.516Z,95360.41
2022-11-03T03:40:07.302Z,95357.38
2022-11-03T03:42:37.967Z,95352.09
2022-11-03T03:45:08.651Z,95356.97
2022-11-03T03:47:36.055Z,95352.25
2022-11-03T03:50:03.187Z,95346.84
2022-11-03T03:52:30.350Z,95347.00
2022-11-03T03:54:57.068Z,95345.34
2022-11-03T03:57:27.426Z,95341.66
2022-11-03T03:59:54.034Z,95342.81
2022-11-03T04:02:20.717Z,95334.16
2022-11-03T04:04:47.354Z,95335.50
2022-11-03T04:07:14.021Z,95339.28
2022-11-03T04:09:40.917Z,95345.34
2022-11-03T04:12:08.995Z,95342.53
2022-11-03T04:14:45.368Z,95329.72
2022-11-03T04:17:20.433Z,95329.13
2022-11-03T04:19:47.056Z,95335.19
2022-11-03T04:22:13.668Z,95333.44
2022-11-03T04:24:40.274Z,95341.00
2022-11-03T04:27:28.213Z,95344.00
2022-11-03T04:29:59.890Z,95338.59
2022-11-03T04:32:26.604Z,95335.03
2022-11-03T04:34:53.745Z,95337.25
2022-11-03T04:37:21.660Z,95343.81
2022-11-03T04:39:48.387Z,95332.84
2022-11-03T04:42:22.115Z,95330.09
2022-11-03T04:44:50.331Z,95326.78
2022-11-03T04:47:18.122Z,95319.91
2022-11-03T04:49:47.801Z,95321.44
2022-11-03T04:52:20.538Z,95325.03
2022-11-03T04:54:50.789Z,95319.38
2022-11-03T04:57:18.323Z,95314.44
2022-11-03T04:59:49.007Z,95318.72
2022-11-03T05:02:19.470Z,95306.00
2022-11-03T05:04:46.436Z,95313.03
2022-11-03T05:07:30.886Z,95308.31
2022-11-03T05:09:57.938Z,95292.63
2022-11-03T05:12:25.198Z,95281.38
2022-11-03T05:14:57.924Z,95275.03
2022-11-03T05:17:28.928Z,95276.72
2022-11-03T05:20:02.321Z,95276.88
2022-11-03T05:22:37.374Z,95264.38
2022-11-03T05:25:35.974Z,95262.22
2022-11-03T05:28:03.565Z,95265.66
2022-11-03T05:30:33.977Z,95259.97
2022-11-03T05:33:00.719Z,95245.19
2022-11-03T05:35:27.358Z,95255.25
2022-11-03T05:37:54.072Z,95237.72
2022-11-03T05:40:22.263Z,95235.75
2022-11-03T05:42:59.165Z,95233.94
2022-11-03T05:45:37.159Z,95233.09
2022-11-03T05:48:28.256Z,95238.34
2022-11-03T05:50:54.973Z,95234.72
2022-11-03T05:53:36.656Z,95224.81
2022-11-03T05:56:05.891Z,95224.75
2022-11-03T05:58:36.052Z,95220.50
2022-11-03T06:01:12.553Z,95229.44
2022-11-03T06:03:39.753Z,95239.47
2022-11-03T06:06:18.535Z,95240.97
2022-11-03T06:08:46.250Z,95235.59
2022-11-03T06:11:24.661Z,95218.16
2022-11-03T06:13:51.523Z,95222.59
2022-11-03T06:16:31.614Z,95217.13
2022-11-03T06:19:01.582Z,95221.63
2022-11-03T06:21:28.647Z,95213.22
2022-11-03T06:23:55.223Z,95206.03
2022-11-03T06:26:27.084Z,95207.56
2022-11-03T06:28:55.718Z,95207.16
2022-11-03T06:31:27.303Z,95199.91
2022-11-03T06:33:57.274Z,95213.75
2022-11-03T06:36:34.369Z,95212.28
2022-11-03T06:39:19.646Z,95213.47
2022-11-03T06:41:46.275Z,95215.59
2022-11-03T06:44:30.980Z,95226.03
2022-11-03T06:47:15.291Z,95217.34
2022-11-03T06:49:43.132Z,95215.00
2022-11-03T06:52:33.194Z,95214.69
2022-11-03T06:55:19.721Z,95212.06
2022-11-03T06:57:48.163Z,95204.47
2022-11-03T07:00:33.584Z,95205.47
2022-11-03T07:03:22.457Z,95211.59
2022-11-03T07:05:49.139Z,95205.84
2022-11-03T07:08:26.790Z,95205.81
2022-11-03T07:11:01.540Z,95203.97
2022-11-03T07:13:31.842Z,95207.63
2022-11-03T07:15:58.573Z,95201.47
2022-11-03T07:18:39.552Z,95205.72
2022-11-03T07:21:38.089Z,95203.81
2022-11-03T07:24:23.939Z,95208.00
2022-11-03T07:27:02.366Z,95216.16
2022-11-03T07:29:31.178Z,95216.41
2022-11-03T07:31:59.843Z,95209.78
2022-11-03T07:34:32.531Z,95204.72
2022-11-03T07:37:00.705Z,95208.97
2022-11-03T07:39:35.061Z,95195.44
2022-11-03T07:42:09.060Z,95198.16
2022-11-03T07:44:35.782Z,95199.78
2022-11-03T07:47:03.205Z,95201.72
2022-11-03T07:49:30.350Z,95201.13
2022-11-03T07:51:59.672Z,95204.38
2022-11-03T07:54:32.946Z,95207.91
2022-11-03T07:57:11.716Z,95201.59
2022-11-03T07:59:43.811Z,95204.31
2022-11-03T08:02:33.457Z,95189.72
2022-11-03T08:05:01.283Z,95194.59
2022-11-03T08:07:28.709Z,95203.41
2022-11-03T08:09:55.385Z,95205.25
2022-11-03T08:12:22.091Z,95204.84
2022-11-03T08:14:48.945Z,95203.72
2022-11-03T08:17:15.685Z,95205.44
2022-11-03T08:19:42.947Z,95197.91
2022-11-03T08:22:09.610Z,95202.91
2022-11-03T08:24:36.271Z,95210.97
2022-11-03T08:27:02.961Z,95209.75
2022-11-03T08:29:29.623Z,95207.78
2022-11-03T08:31:56.633Z,95201.31
2022-11-03T08:34:23.272Z,95210.47
2022-11-03T08:36:49.890Z,95195.09
2022-11-03T08:39:16.522Z,95188.75
2022-11-03T08:41:43.214Z,95180.63
2022-11-03T08:44:09.792Z,95180.69
2022-11-03T08:46:36.369Z,95156.72
2022-11-03T08:49:03.095Z,95161.03
2022-11-03T08:51:29.698Z,95170.66
2022-11-03T08:53:56.284Z,95170.16
2022-11-03T08:56:23.022Z,95171.09
2022-11-03T08:58:49.895Z,95178.34
2022-11-03T09:01:16.562Z,95186.69
2022-11-03T09:03:43.452Z,95174.91
2022-11-03T09:06:10.677Z,95178.28
2022-11-03T09:11:23.844Z,95159.13
2022-11-03T09:13:50.465Z,95150.13
2022-11-03T09:16:17.252Z,95141.75
2022-11-03T09:18:43.948Z,95139.47
2022-11-03T09:21:10.539Z,95125.06
2022-11-03T09:23:37.123Z,95120.38
2022-11-03T09:26:03.751Z,95113.56
2022-11-03T09:28:30.337Z,95116.34
2022-11-03T09:30:56.934Z,95115.31
2022-11-03T09:33:23.504Z,95116.03
2022-11-03T09:35:50.086Z,95116.66
2022-11-03T09:38:16.671Z,95108.00
2022-11-03T09:40:43.445Z,95091.63
2022-11-03T09:43:11.365Z,95089.56
2022-11-03T09:45:41.054Z,95078.56
2022-11-03T09:48:12.684Z,95081.44
2022-11-03T09:50:39.753Z,95066.47
2022-11-03T09:53:09.071Z,95072.69
2022-11-03T09:55:35.958Z,95070.56
2022-11-03T09:58:13.713Z,95079.28
2022-11-03T10:00:40.838Z,95069.25
2022-11-03T10:03:12.229Z,95061.63
2022-11-03T10:05:40.329Z,95066.13
2022-11-03T10:08:22.413Z,95054.47
2022-11-03T10:10:51.178Z,95039.22
2022-11-03T10:13:36.255Z,95045.13
2022-11-03T10:16:07.714Z,95046.16
2022-11-03T10:18:36.645Z,95038.78
2022-11-03T10:21:17.997Z,95025.50
2022-11-03T10:23:44.640Z,95021.03
2022-11-03T10:26:14.110Z,95003.72
2022-11-03T10:28:59.844Z,94997.78
2022-11-03T10:31:32.533Z,94987.19
2022-11-03T10:33:59.164Z,94979.50
2022-11-03T10:36:28.651Z,94969.56
2022-11-03T10:38:57.276Z,94963.66
2022-11-03T10:41:29.650Z,94952.06
2022-11-03T10:44:02.359Z,94953.94
2022-11-03T10:46:49.796Z,94949.06
2022-11-03T10:49:20.536Z,94941.28
2022-11-03T10:51:51.181Z,94933.47
2022-11-03T10:54:20.633Z,94931.75
2022-11-03T10:56:48.496Z,94926.03
2022-11-03T10:59:19.399Z,94931.09
2022-11-03T11:01:46.679Z,94927.72
2022-11-03T11:04:18.871Z,94933.69
2022-11-03T11:06:46.878Z,94942.44
2022-11-03T11:09:26.754Z,94938.44
2022-11-03T11:12:06.940Z,94939.56
2022-11-03T11:14:50.937Z,94932.75
2022-11-03T11:17:43.672Z,94916.47
2022-11-03T11:20:16.366Z,94909.81
2022-11-03T11:22:42.986Z,94897.78
2022-11-03T11:25:09.606Z,94898.44
2022-11-03T11:27:36.107Z,94879.53
2022-11-03T11:30:24.667Z,94867.84
2022-11-03T11:33:12.557Z,94861.16
2022-11-03T11:35:39.158Z,94847.81
2022-11-03T11:38:43.266Z,94851.28
2022-11-03T11:41:09.915Z,94854.16
2022-11-03T11:43:37.144Z,94831.13
2022-11-03T11:46:22.068Z,94819.69
2022-11-03T11:49:03.939Z,94805.13
2022-11-03T11:51:37.838Z,94793.56
2022-11-03T11:54:17.420Z,94797.25
2022-11-03T11:56:47.608Z,94775.66
2022-11-03T11:59:24.792Z,94767.66
2022-11-03T12:01:56.088Z,94766.53
2022-11-03T12:04:29.476Z,94759.34
2022-11-03T12:06:56.156Z,94750.22
2022-11-03T12:09:26.130Z,94749.91
2022-11-03T12:11:59.384Z,94736.88
2022-11-03T12:14:38.552Z,94736.00
2022-11-03T12:17:17.247Z,94736.84
2022-11-03T12:19:46.524Z,94726.63
2022-11-03T12:22:33.365Z,94723.94
2022-11-03T12:25:05.205Z,94710.00
2022-11-03T12:27:31.727Z,94712.88
2022-11-03T12:30:00.858Z,94709.88
2022-11-03T12:32:35.582Z,94700.97
2022-11-03T12:35:05.725Z,94694.59
2022-11-03T12:37:32.339Z,94690.25
2022-11-03T12:39:59.243Z,94685.81
2022-11-03T12:42:26.074Z,94690.06
2022-11-03T12:44:53.417Z,94689.03
2022-11-03T12:47:20.858Z,94681.56
2022-11-03T12:49:47.827Z,94680.81
2022-11-03T12:52:14.582Z,94687.78
2022-11-03T12:54:41.332Z,94693.72
2022-11-03T12:57:07.948Z,94688.72
2022-11-03T12:59:34.559Z,94682.22
2022-11-03T13:02:01.411Z,94645.09
2022-11-03T13:04:28.144Z,94678.06
2022-11-03T13:06:54.745Z,94637.84
2022-11-03T13:09:21.376Z,94617.34
2022-11-03T13:11:47.993Z,94628.38
2022-11-03T13:14:14.602Z,94625.16
2022-11-03T13:16:41.191Z,94667.59
2022-11-03T13:19:07.824Z,94657.97
2022-11-03T13:21:34.411Z,94667.59
2022-11-03T13:24:00.995Z,94684.41
2022-11-03T13:26:27.624Z,94692.91
2022-11-03T13:28:54.277Z,94703.09
2022-11-03T13:31:20.906Z,94720.75
2022-11-03T13:33:47.573Z,94720.59
2022-11-03T13:36:14.223Z,94710.00
2022-11-03T13:38:40.865Z,94698.22
2022-11-03T13:41:09.201Z,94679.97
2022-11-03T13:43:36.590Z,94685.13
2022-11-03T13:46:03.601Z,94688.72
2022-11-03T13:51:17.140Z,94695.72
2022-11-03T13:56:30.630Z,94655.25
2022-11-03T14:01:44.000Z,94654.09
2022-11-03T14:06:57.444Z,94667.88
2022-11-03T14:09:24.626Z,94660.25
2022-11-03T14:11:51.274Z,94654.09
2022-11-03T14:14:17.872Z,94649.06
2022-11-03T14:16:44.505Z,94638.16
2022-11-03T14:19:11.156Z,94629.97
2022-11-03T14:21:37.750Z,94621.63
2022-11-03T14:24:05.443Z,94611.78
2022-11-03T14:26:42.169Z,94599.59
2022-11-03T14:29:10.092Z,94603.66
2022-11-03T14:31:37.093Z,94617.69
2022-11-03T14:34:03.902Z,94619.09
2022-11-03T14:36:30.505Z,94618.25
2022-11-03T14:38:57.095Z,94626.09
2022-11-03T14:41:23.706Z,94620.38
2022-11-03T14:43:50.373Z,94611.53
2022-11-03T14:46:16.988Z,94597.56
2022-11-03T14:48:43.634Z,94580.84
2022-11-03T14:51:10.232Z,94575.16
2022-11-03T14:53:36.817Z,94580.75
2022-11-03T14:56:03.542Z,94582.97
2022-11-03T14:58:30.127Z,94582.97
2022-11-03T15:00:56.765Z,94584.28
2022-11-03T15:03:23.370Z,94559.91
2022-11-03T15:05:49.971Z,94552.25
2022-11-03T15:08:18.151Z,94550.47
2022-11-03T15:10:44.937Z,94539.22
2022-11-03T15:13:12.557Z,94530.06
2022-11-03T15:15:39.640Z,94527.47
2022-11-03T15:18:06.777Z,94511.81
2022-11-03T15:20:34.043Z,94501.59
2022-11-03T15:25:47.585Z,94504.19
2022-11-03T15:28:14.461Z,94505.97
2022-11-03T15:30:41.178Z,94504.88
2022-11-03T15:33:07.976Z,94495.44
2022-11-03T15:35:34.768Z,94480.72
2022-11-03T15:38:01.401Z,94475.88
2022-11-03T15:40:28.001Z,94464.06
2022-11-03T15:42:59.002Z,94473.22
2022-11-03T15:45:28.487Z,94475.47
2022-11-03T15:47:58.375Z,94464.22
2022-11-03T15:50:25.828Z,94447.72
2022-11-03T15:52:55.985Z,94456.28
2022-11-03T15:55:22.868Z,94462.94
2022-11-03T15:57:49.703Z,94483.28
2022-11-03T16:00:16.573Z,94504.44
2022-11-03T16:02:43.261Z,94492.66
2022-11-03T16:05:10.030Z,94484.34
2022-11-03T16:07:36.646Z,94493.03
2022-11-03T16:10:03.644Z,94502.66
2022-11-03T16:12:30.244Z,94500.06
2022-11-03T16:14:56.857Z,94487.50
2022-11-03T16:17:23.821Z,94476.34
2022-11-03T16:19:51.162Z,94470.91
2022-11-03T16:22:17.807Z,94481.84
2022-11-03T16:24:44.443Z,94461.22
2022-11-03T16:27:11.168Z,94477.91
2022-11-03T16:29:37.786Z,94466.41
2022-11-03T16:32:04.402Z,94470.31
2022-11-03T16:34:30.994Z,94470.59
2022-11-03T16:36:57.596Z,94456.38
2022-11-03T16:39:24.245Z,94448.38
2022-11-03T16:41:50.841Z,94445.22
2022-11-03T16:44:17.480Z,94425.09
2022-11-03T16:46:44.081Z,94412.88
2022-11-03T16:49:10.694Z,94414.34
2022-11-03T16:51:37.419Z,94426.97
2022-11-03T16:54:04.084Z,94429.94
2022-11-03T16:56:30.797Z,94432.25
2022-11-03T16:58:57.424Z,94442.34
2022-11-03T17:01:24.054Z,94444.31
2022-11-03T17:03:50.770Z,94443.00
2022-11-03T17:06:17.378Z,94424.22
2022-11-03T17:08:52.915Z,94437.53
2022-11-03T17:11:20.649Z,94442.09
2022-11-03T17:13:47.280Z,94442.56
2022-11-03T17:16:13.985Z,94440.97
2022-11-03T17:18:40.558Z,94446.84
2022-11-03T17:21:07.141Z,94433.28
2022-11-03T17:23:33.726Z,94421.94
2022-11-03T17:26:03.186Z,94421.28
2022-11-03T17:28:29.810Z,94430.44
2022-11-03T17:30:56.454Z,94427.06
2022-11-03T17:33:23.126Z,94437.13
2022-11-03T17:35:49.803Z,94426.47
2022-11-03T17:38:18.380Z,94419.25
2022-11-03T17:40:47.317Z,94429.16
2022-11-03T17:43:32.059Z,94454.09
2022-11-03T17:45:58.663Z,94410.31
2022-11-03T17:48:25.257Z,94420.97
2022-11-03T17:50:55.322Z,94430.00
2022-11-03T17:53:25.616Z,94411.66
2022-11-03T17:56:23.354Z,94394.75
2022-11-03T17:58:46.196Z,94392.69
2022-11-03T18:01:23.739Z,94398.31
2022-11-03T18:03:50.577Z,94391.25
2022-11-03T18:06:19.738Z,94385.72
2022-11-03T18:08:49.827Z,94376.28
2022-11-03T18:11:27.923Z,94373.13
2022-11-03T18:13:54.530Z,94378.56
2022-11-03T18:16:21.127Z,94365.00
2022-11-03T18:18:47.689Z,94368.66
2022-11-03T18:21:21.370Z,94372.16
2022-11-03T18:23:48.259Z,94377.59
2022-11-03T18:26:26.289Z,94390.28
2022-11-03T18:28:53.461Z,94406.53
2022-11-03T18:31:24.512Z,94397.50
2022-11-03T18:33:53.015Z,94397.56
2022-11-03T18:36:20.631Z,94406.53
2022-11-03T18:38:47.797Z,94390.84
2022-11-03T18:41:16.607Z,94371.47
2022-11-03T18:43:43.210Z,94380.31
2022-11-03T18:46:09.780Z,94368.59
2022-11-03T18:48:36.394Z,94362.69
2022-11-03T18:51:03.041Z,94366.88
2022-11-03T18:53:29.900Z,94367.75
2022-11-03T18:56:01.046Z,94364.19
2022-11-03T18:58:27.806Z,94369.81
2022-11-03T19:00:54.744Z,94359.69
2022-11-03T19:03:23.301Z,94368.31
2022-11-03T19:05:52.698Z,94361.00
2022-11-03T19:08:30.474Z,94351.94
2022-11-03T19:10:58.316Z,94349.69
2022-11-03T19:13:29.996Z,94342.03
2022-11-03T19:16:00.481Z,94339.84
2022-11-03T19:18:29.865Z,94394.06
2022-11-03T19:20:56.477Z,94440.03
2022-11-03T19:23:23.052Z,94471.31
2022-11-03T19:25:57.767Z,94456.56
2022-11-03T19:28:28.029Z,94453.75
2022-11-03T19:30:57.844Z,94466.16
2022-11-03T19:33:29.337Z,94472.19
2022-11-03T19:35:56.115Z,94474.28
2022-11-03T19:38:22.821Z,94490.22
2022-11-03T19:40:49.424Z,94484.31
2022-11-03T19:43:16.001Z,94490.19
2022-11-03T19:45:42.601Z,94490.84
2022-11-03T19:48:23.746Z,94485.72
2022-11-03T19:50:52.006Z,94494.19
2022-11-03T19:53:25.991Z,94497.41
2022-11-03T19:55:54.772Z,94509.91
2022-11-03T19:58:23.916Z,94508.63
2022-11-03T20:00:51.656Z,94507.97
2022-11-03T20:03:18.801Z,94504.78
2022-11-03T20:05:49.682Z,94501.66
2022-11-03T20:08:24.011Z,94521.56
2022-11-03T20:10:50.764Z,94517.75
2022-11-03T20:13:24.761Z,94530.72
2022-11-03T20:15:57.376Z,94534.84
2022-11-03T20:18:25.991Z,94550.28
2022-11-03T20:20:52.640Z,94564.22
2022-11-03T20:23:26.930Z,94570.25
2022-11-03T20:25:54.449Z,94561.25
2022-11-03T20:28:24.441Z,94572.34
2022-11-03T20:30:52.252Z,94571.59
2022-11-03T20:33:21.597Z,94563.59
2022-11-03T20:35:50.008Z,94565.75
2022-11-03T20:38:19.373Z,94558.50
2022-11-03T20:40:47.227Z,94559.22
2022-11-03T20:43:26.932Z,94571.53
2022-11-03T20:45:54.909Z,94577.38
2022-11-03T20:48:22.248Z,94589.72
2022-11-03T20:50:49.524Z,94605.59
2022-11-03T20:53:20.347Z,94619.06
2022-11-03T20:55:47.404Z,94630.34
2022-11-03T20:58:17.058Z,94627.53
2022-11-03T21:00:46.161Z,94641.19
2022-11-03T21:03:53.499Z,94646.16
2022-11-03T21:06:13.981Z,94677.09
2022-11-03T21:08:40.704Z,94670.34
2022-11-03T21:11:16.781Z,94672.59
2022-11-03T21:13:43.502Z,94684.16
2022-11-03T21:16:23.951Z,94681.31
2022-11-03T21:18:50.981Z,94671.75
2022-11-03T21:21:20.936Z,94677.56
2022-11-03T21:23:47.897Z,94691.84
2022-11-03T21:26:14.502Z,94691.22
2022-11-03T21:28:41.066Z,94705.66
2022-11-03T21:31:13.262Z,94697.34
2022-11-03T21:33:39.917Z,94679.56
2022-11-03T21:36:06.748Z,94688.53
2022-11-03T21:38:33.351Z,94696.88
2022-11-03T21:40:59.932Z,94696.13
2022-11-03T21:43:26.526Z,94698.97
2022-11-03T21:45:53.161Z,94711.34
2022-11-03T21:48:20.203Z,94730.00
2022-11-03T21:50:47.380Z,94722.72
2022-11-03T21:53:14.133Z,94738.56
2022-11-03T21:55:41.416Z,94745.69
2022-11-03T21:58:08.752Z,94729.06
2022-11-03T22:00:35.330Z,94720.09
2022-11-03T22:03:02.028Z,94702.88
2022-11-03T22:05:31.553Z,94703.56
2022-11-03T22:07:58.166Z,94711.56
2022-11-03T22:10:24.801Z,94713.00
2022-11-03T22:12:51.432Z,94689.78
2022-11-03T22:15:18.147Z,94703.88
2022-11-03T22:17:45.076Z,94699.66
2022-11-03T22:20:11.909Z,94697.59
2022-11-03T22:22:38.766Z,94702.16
2022-11-03T22:25:06.146Z,94740.59
2022-11-03T22:27:33.874Z,94709.38
2022-11-03T22:30:00.776Z,94702.56
2022-11-03T22:32:27.454Z,94702.69
2022-11-03T22:34:54.116Z,94709.75
2022-11-03T22:37:20.758Z,94718.47
2022-11-03T22:39:47.903Z,94726.97
2022-11-03T22:42:14.705Z,94734.16
2022-11-03T22:44:41.402Z,94737.50
2022-11-03T22:47:08.657Z,94728.31
2022-11-03T22:49:35.741Z,94708.72
2022-11-03T22:52:02.930Z,94693.19
2022-11-03T22:54:29.551Z,94665.06
2022-11-03T22:56:56.156Z,94672.66
2022-11-03T22:59:22.955Z,94670.72
2022-11-03T23:01:49.729Z,94668.25
2022-11-03T23:04:16.622Z,94674.66
2022-11-03T23:06:43.375Z,94667.16
2022-11-03T23:09:10.421Z,94686.22
2022-11-03T23:11:37.545Z,94688.66
2022-11-03T23:14:05.378Z,94691.69
2022-11-03T23:16:35.356Z,94674.50
2022-11-03T23:19:03.276Z,94661.75
2022-11-03T23:21:31.651Z,94671.31
2022-11-03T23:23:58.710Z,94678.19
2022-11-03T23:26:26.715Z,94687.72
2022-11-03T23:28:54.160Z,94676.81
2022-11-03T23:31:20.825Z,94677.22
2022-11-03T23:33:47.498Z,94683.78
2022-11-03T23:36:16.560Z,94709.78
2022-11-03T23:38:44.367Z,94707.03
2022-11-03T23:41:13.954Z,94701.16
2022-11-03T23:43:42.072Z,94708.38
2022-11-03T23:46:11.985Z,94723.41
2022-11-03T23:48:38.579Z,94727.53
2022-11-03T23:51:34.343Z,94719.66
2022-11-03T23:54:01.881Z,94720.09
2022-11-03T23:56:30.478Z,94718.56
2022-11-03T23:58:57.636Z,94724.63
